Time;durP1;ratioP1;P1;durP2;ratioP2;P2;SDS_P1;SDS_P2;PMS_P1;PMS_P2;Temp;Humidity;BMP_temperature;BMP_pressure;BME280_temperature;BME280_humidity;BME280_pressure;Samples;Min_cycle;Max_cycle;Signal;HPM_P1;HPM_P2
2022/05/19 00:01:49;;;;;;;7.30;3.43;;;;;;;21.11;100.00;99455.84;5008768;28;20206;-83
2022/05/19 00:04:18;;;;;;;5.10;3.60;;;;;;;21.10;100.00;99460.41;5007291;28;20199;-83
2022/05/19 00:06:46;;;;;;;7.27;3.87;;;;;;;21.00;100.00;99451.56;5010630;28;20215;-82
2022/05/19 00:09:17;;;;;;;3.97;3.30;;;;;;;20.88;100.00;99452.84;5006622;28;20216;-83
2022/05/19 00:11:46;;;;;;;4.17;3.40;;;;;;;20.90;100.00;99452.69;5013441;28;20211;-83
2022/05/19 00:14:16;;;;;;;5.27;3.40;;;;;;;20.85;100.00;99454.00;5013121;28;20194;-82
2022/05/19 00:16:45;;;;;;;4.13;3.57;;;;;;;20.72;100.00;99452.72;5013135;28;20218;-83
2022/05/19 00:19:18;;;;;;;6.70;4.10;;;;;;;20.73;100.00;99451.69;5020753;28;20279;-82
2022/05/19 00:21:46;;;;;;;3.77;3.40;;;;;;;20.64;100.00;99444.56;5071224;28;20365;-83
2022/05/19 00:24:18;;;;;;;4.83;3.83;;;;;;;20.60;100.00;99451.25;5068007;28;20211;-83
2022/05/19 00:26:47;;;;;;;5.33;3.40;;;;;;;20.56;100.00;99454.28;5069760;28;20311;-84
2022/05/19 00:29:17;;;;;;;3.97;3.47;;;;;;;20.45;100.00;99450.94;5061624;28;20196;-83
2022/05/19 00:31:47;;;;;;;4.23;3.83;;;;;;;20.50;100.00;99451.34;5069452;28;20188;-83
2022/05/19 00:34:18;;;;;;;6.37;3.50;;;;;;;20.41;100.00;99449.53;5073642;28;20195;-82
2022/05/19 00:36:46;;;;;;;5.37;3.70;;;;;;;20.38;100.00;99445.31;5067289;28;20188;-83
2022/05/19 00:39:15;;;;;;;5.43;3.90;;;;;;;20.24;100.00;99452.06;5064362;28;20220;-83
2022/05/19 00:41:45;;;;;;;7.67;3.97;;;;;;;20.30;100.00;99446.09;5065147;28;20184;-83
2022/05/19 00:44:15;;;;;;;6.07;3.83;;;;;;;20.27;100.00;99443.72;5065551;28;20224;-82
2022/05/19 00:46:50;;;;;;;6.80;3.70;;;;;;;20.28;100.00;99447.25;5069011;28;20195;-83
2022/05/19 00:49:26;;;;;;;4.40;3.90;;;;;;;20.17;100.00;99439.38;5069412;28;20662;-83
2022/05/19 00:52:01;;;;;;;4.47;3.70;;;;;;;20.26;100.00;99442.00;5064323;28;20192;-82
2022/05/19 00:54:36;;;;;;;5.60;3.87;;;;;;;20.12;100.00;99436.31;5059648;28;20626;-82
2022/05/19 00:57:15;;;;;;;6.60;3.63;;;;;;;20.11;100.00;99438.16;5069073;28;20201;-82
2022/05/19 00:59:49;;;;;;;7.90;3.97;;;;;;;20.04;100.00;99433.53;5010005;28;20194;-82
2022/05/19 01:02:21;;;;;;;5.60;3.40;;;;;;;19.95;100.00;99430.75;5007919;28;20198;-83
2022/05/19 01:05:01;;;;;;;3.57;3.13;;;;;;;20.00;100.00;99436.53;5012200;28;20222;-83
2022/05/19 01:07:35;;;;;;;4.50;3.30;;;;;;;19.99;100.00;99432.16;5011743;28;20264;-84
2022/05/19 01:10:06;;;;;;;5.43;3.90;;;;;;;19.92;100.00;99431.06;5006805;28;20664;-82
2022/05/19 01:12:35;;;;;;;5.33;4.13;;;;;;;19.90;100.00;99429.53;5012044;28;20672;-82
2022/05/19 01:15:05;;;;;;;6.87;3.63;;;;;;;19.93;100.00;99437.28;5002356;28;20209;-83
2022/05/19 01:17:34;;;;;;;7.53;4.13;;;;;;;19.59;100.00;99442.41;5011061;28;20222;-83
2022/05/19 01:20:11;;;;;;;4.63;4.13;;;;;;;19.55;100.00;99444.50;5006737;28;20201;-82
2022/05/19 01:22:50;;;;;;;4.60;3.83;;;;;;;19.49;100.00;99452.31;5013848;28;20213;-83
2022/05/19 01:25:27;;;;;;;5.30;4.00;;;;;;;19.53;100.00;99453.72;5014968;28;20190;-83
2022/05/19 01:27:58;;;;;;;4.10;3.63;;;;;;;19.47;100.00;99449.78;4949642;28;20235;-83
2022/05/19 01:30:27;;;;;;;4.40;3.70;;;;;;;19.58;100.00;99440.72;4972017;28;20209;-83
2022/05/19 01:33:00;;;;;;;7.30;3.80;;;;;;;19.68;100.00;99439.66;5011016;28;20206;-82
2022/05/19 01:35:33;;;;;;;4.60;3.73;;;;;;;19.71;100.00;99439.38;5013624;28;20194;-82
2022/05/19 01:38:02;;;;;;;5.77;3.90;;;;;;;19.60;100.00;99439.59;5012688;28;20194;-82
2022/05/19 01:40:51;;;;;;;4.10;3.40;;;;;;;19.59;100.00;99429.84;5006252;28;20211;-82
2022/05/19 01:43:30;;;;;;;5.53;4.20;;;;;;;19.55;100.00;99439.13;5009296;28;20202;-82
2022/05/19 01:46:18;;;;;;;5.77;3.97;;;;;;;19.51;100.00;99431.53;5039210;28;20188;-82
2022/05/19 01:48:52;;;;;;;4.13;3.73;;;;;;;19.60;100.00;99436.06;5074017;28;20236;-82
2022/05/19 01:51:31;;;;;;;4.97;3.93;;;;;;;19.59;100.00;99427.16;5070282;28;20211;-82
2022/05/19 01:54:07;;;;;;;4.73;3.50;;;;;;;19.53;100.00;99435.75;5069076;28;20196;-83
2022/05/19 01:56:43;;;;;;;5.40;3.50;;;;;;;19.45;100.00;99438.34;5070620;28;20226;-82
2022/05/19 01:59:22;;;;;;;5.47;4.10;;;;;;;19.36;100.00;99437.38;5064003;28;20210;-82
2022/05/19 02:02:01;;;;;;;5.90;4.13;;;;;;;19.33;100.00;99429.63;5023912;28;20203;-82
2022/05/19 02:04:39;;;;;;;5.67;4.00;;;;;;;19.33;100.00;99434.16;5023685;28;20200;-82
2022/05/19 02:07:13;;;;;;;5.07;3.97;;;;;;;19.07;100.00;99439.31;5077471;28;20194;-81
2022/05/19 02:09:46;;;;;;;4.30;3.90;;;;;;;19.15;100.00;99434.06;5080279;28;20217;-81
2022/05/19 02:12:15;;;;;;;4.13;3.73;;;;;;;19.12;100.00;99443.28;5069969;28;20196;-81
2022/05/19 02:14:49;;;;;;;4.77;4.10;;;;;;;19.20;100.00;99442.50;5071392;28;20221;-81
2022/05/19 02:17:21;;;;;;;4.83;4.10;;;;;;;19.14;100.00;99443.13;5076527;28;20250;-81
2022/05/19 02:19:55;;;;;;;4.37;3.97;;;;;;;19.13;100.00;99441.44;5070131;28;20209;-82
2022/05/19 02:22:29;;;;;;;5.67;4.00;;;;;;;19.22;100.00;99443.25;5074325;28;20208;-81
2022/05/19 02:24:59;;;;;;;4.40;4.00;;;;;;;19.12;100.00;99450.47;5067785;28;20204;-82
2022/05/19 02:27:33;;;;;;;4.40;4.00;;;;;;;18.97;100.00;99451.91;5072213;28;20299;-82
2022/05/19 02:30:08;;;;;;;5.20;4.20;;;;;;;18.91;100.00;99453.31;5071217;28;20227;-82
2022/05/19 02:32:36;;;;;;;8.50;4.67;;;;;;;18.99;100.00;99444.56;5070844;28;20196;-82
2022/05/19 02:35:06;;;;;;;5.20;4.70;;;;;;;19.02;100.00;99452.34;5070662;28;20204;-82
2022/05/19 02:37:36;;;;;;;7.97;4.60;;;;;;;19.08;100.00;99449.91;5069568;28;20248;-82
2022/05/19 02:40:06;;;;;;;5.73;4.40;;;;;;;19.19;100.00;99453.41;5069477;28;20197;-82
2022/05/19 02:42:34;;;;;;;6.20;4.10;;;;;;;19.45;100.00;99449.94;5071538;28;20201;-83
2022/05/19 02:45:04;;;;;;;4.63;3.77;;;;;;;19.05;100.00;99444.84;5070452;28;20234;-83
2022/05/19 02:47:33;;;;;;;4.33;3.93;;;;;;;19.22;100.00;99440.56;5069896;28;20196;-82
2022/05/19 02:50:03;;;;;;;11.00;4.03;;;;;;;18.83;100.00;99434.44;5067084;28;20223;-83
2022/05/19 02:52:32;;;;;;;5.43;3.60;;;;;;;18.60;100.00;99432.00;5072177;28;20188;-82
2022/05/19 02:55:00;;;;;;;5.27;3.80;;;;;;;18.74;100.00;99436.13;5071761;28;20193;-82
2022/05/19 02:57:28;;;;;;;5.97;3.90;;;;;;;18.76;100.00;99428.78;5075959;28;20283;-82
2022/05/19 02:59:57;;;;;;;4.47;3.57;;;;;;;18.79;100.00;99424.97;5072875;28;20283;-82
2022/05/19 03:02:27;;;;;;;5.03;3.93;;;;;;;18.66;100.00;99413.69;5063283;28;20203;-82
2022/05/19 03:04:55;;;;;;;5.93;3.80;;;;;;;18.58;100.00;99412.53;5075285;28;20271;-82
2022/05/19 03:07:24;;;;;;;6.40;4.37;;;;;;;18.51;100.00;99421.28;5075266;28;20184;-83
2022/05/19 03:09:53;;;;;;;5.57;3.70;;;;;;;18.49;100.00;99431.31;5074838;28;20220;-83
2022/05/19 03:12:21;;;;;;;4.90;3.67;;;;;;;18.51;100.00;99415.91;5072722;28;20200;-83
2022/05/19 03:14:49;;;;;;;6.33;4.37;;;;;;;18.42;100.00;99422.97;5075745;28;20215;-82
2022/05/19 03:17:18;;;;;;;5.97;4.07;;;;;;;18.31;100.00;99420.44;5069618;28;20304;-82
2022/05/19 03:19:53;;;;;;;6.33;4.10;;;;;;;18.02;100.00;99423.94;5065620;28;20205;-82
2022/05/19 03:22:21;;;;;;;7.97;4.57;;;;;;;17.93;100.00;99431.97;5069201;28;20208;-82
2022/05/19 03:24:49;;;;;;;6.33;4.00;;;;;;;17.85;100.00;99429.97;5065933;28;20254;-83
2022/05/19 03:27:20;;;;;;;5.70;4.30;;;;;;;17.90;100.00;99425.06;5072505;28;20752;-83
2022/05/19 03:29:48;;;;;;;6.03;4.23;;;;;;;17.98;100.00;99414.50;5064027;28;20220;-83
2022/05/19 03:32:18;;;;;;;5.87;4.33;;;;;;;18.09;100.00;99410.84;5065136;28;20205;-83
2022/05/19 03:34:47;;;;;;;5.20;3.97;;;;;;;18.07;100.00;99412.81;5075036;28;20200;-82
2022/05/19 03:37:15;;;;;;;6.73;4.10;;;;;;;18.04;100.00;99410.41;5058354;28;20215;-83
2022/05/19 03:39:44;;;;;;;4.67;4.20;;;;;;;17.86;100.00;99420.13;5067191;28;20205;-83
2022/05/19 03:42:13;;;;;;;7.23;4.33;;;;;;;17.84;100.00;99417.56;5070559;28;20242;-83
2022/05/19 03:44:41;;;;;;;5.27;4.30;;;;;;;17.81;100.00;99412.50;5069437;28;20188;-83
2022/05/19 03:47:10;;;;;;;4.70;4.30;;;;;;;17.83;100.00;99410.50;5066922;28;20280;-83
2022/05/19 03:49:38;;;;;;;7.00;4.10;;;;;;;17.77;100.00;99402.19;5068059;28;20675;-82
2022/05/19 03:52:08;;;;;;;4.43;3.83;;;;;;;17.97;100.00;99407.44;5071591;28;20252;-83
2022/05/19 03:54:36;;;;;;;4.63;4.23;;;;;;;17.82;100.00;99405.28;5066045;28;20193;-83
2022/05/19 03:57:06;;;;;;;4.90;4.10;;;;;;;18.01;100.00;99399.97;5068940;28;20203;-82
2022/05/19 03:59:35;;;;;;;4.40;4.00;;;;;;;17.78;100.00;99398.53;5074405;28;20239;-82
2022/05/19 04:02:04;;;;;;;4.93;3.73;;;;;;;17.59;100.00;99393.94;5063498;28;20200;-81
2022/05/19 04:04:53;;;;;;;4.10;3.70;;;;;;;17.63;100.00;99398.88;5012745;28;20199;-82
2022/05/19 04:07:23;;;;;;;6.87;3.87;;;;;;;17.70;100.00;99401.88;5006986;28;20213;-82
2022/05/19 04:09:52;;;;;;;3.87;3.53;;;;;;;17.76;100.00;99405.84;5008926;28;20218;-82
2022/05/19 04:12:21;;;;;;;4.30;3.80;;;;;;;17.83;100.00;99404.31;5002497;28;20194;-83
2022/05/19 04:14:49;;;;;;;4.27;3.53;;;;;;;17.85;100.00;99400.50;5004163;28;20201;-82
2022/05/19 04:17:18;;;;;;;5.03;3.80;;;;;;;18.03;100.00;99398.81;5010128;28;20289;-82
2022/05/19 04:19:47;;;;;;;4.50;3.80;;;;;;;17.94;100.00;99398.81;5009787;28;20226;-83
2022/05/19 04:22:15;;;;;;;5.03;4.00;;;;;;;17.97;100.00;99402.09;5027171;28;20659;-82
2022/05/19 04:24:45;;;;;;;5.30;3.30;;;;;;;18.21;100.00;99411.53;5059092;28;20211;-83
2022/05/19 04:27:14;;;;;;;5.60;3.90;;;;;;;17.82;100.00;99410.66;5070960;28;20224;-81
2022/05/19 04:29:42;;;;;;;5.80;3.93;;;;;;;17.86;100.00;99422.81;5074260;28;20220;-83
2022/05/19 04:32:12;;;;;;;5.33;4.50;;;;;;;17.61;100.00;99426.78;5071258;28;20227;-81
2022/05/19 04:34:40;;;;;;;5.83;4.20;;;;;;;17.68;100.00;99433.31;5068747;28;20188;-83
2022/05/19 04:37:09;;;;;;;7.27;4.53;;;;;;;17.53;100.00;99440.84;5064484;28;20672;-82
2022/05/19 04:39:37;;;;;;;5.43;4.50;;;;;;;17.53;100.00;99454.25;5069395;28;20662;-82
2022/05/19 04:42:09;;;;;;;4.90;4.07;;;;;;;17.69;100.00;99449.28;5065660;28;20200;-82
2022/05/19 04:44:38;;;;;;;5.17;4.67;;;;;;;17.72;100.00;99454.34;5073865;28;20276;-83
2022/05/19 04:47:08;;;;;;;7.13;4.47;;;;;;;17.89;100.00;99449.31;5069949;28;20275;-82
2022/05/19 04:49:36;;;;;;;7.07;4.13;;;;;;;17.91;100.00;99458.06;5066272;28;20216;-83
2022/05/19 04:52:11;;;;;;;5.40;4.30;;;;;;;17.94;100.00;99455.09;5067855;28;20203;-82
2022/05/19 04:54:39;;;;;;;4.90;3.90;;;;;;;18.09;100.00;99451.06;5067556;28;20590;-82
2022/05/19 04:57:10;;;;;;;5.33;4.10;;;;;;;18.09;100.00;99456.41;5073634;28;20220;-83
2022/05/19 04:59:39;;;;;;;4.43;3.83;;;;;;;18.26;100.00;99457.56;5073534;28;20280;-82
2022/05/19 05:02:08;;;;;;;4.40;4.00;;;;;;;18.31;100.00;99449.94;5068738;28;20218;-82
2022/05/19 05:04:36;;;;;;;4.63;3.97;;;;;;;18.46;100.00;99447.69;5069559;28;20283;-82
2022/05/19 05:07:06;;;;;;;7.80;3.90;;;;;;;18.56;100.00;99443.19;5073734;28;20293;-83
2022/05/19 05:09:34;;;;;;;5.00;3.63;;;;;;;18.69;100.00;99443.75;5069265;28;20194;-83
2022/05/19 05:12:04;;;;;;;5.47;3.97;;;;;;;18.73;100.00;99447.88;5067102;28;20749;-83
2022/05/19 05:14:33;;;;;;;4.93;4.23;;;;;;;18.84;100.00;99433.44;5073466;28;20192;-83
2022/05/19 05:17:01;;;;;;;4.93;3.93;;;;;;;19.00;100.00;99433.66;5066303;28;20196;-82
2022/05/19 05:19:31;;;;;;;6.33;4.03;;;;;;;19.06;100.00;99426.88;5068580;28;20188;-83
2022/05/19 05:22:03;;;;;;;5.70;3.83;;;;;;;19.14;100.00;99432.38;5073213;28;20200;-83
2022/05/19 05:24:33;;;;;;;4.50;3.80;;;;;;;19.10;100.00;99433.63;5066859;28;20188;-83
2022/05/19 05:27:03;;;;;;;4.73;4.00;;;;;;;18.91;100.00;99433.69;5067551;28;20232;-82
2022/05/19 05:29:31;;;;;;;7.27;4.07;;;;;;;18.97;100.00;99435.81;5073219;28;20203;-83
2022/05/19 05:32:02;;;;;;;6.10;3.77;;;;;;;19.07;100.00;99444.69;5070441;28;20253;-82
2022/05/19 05:34:30;;;;;;;6.20;3.83;;;;;;;18.92;100.00;99446.16;5073083;28;20246;-82
2022/05/19 05:36:58;;;;;;;4.53;4.07;;;;;;;19.11;100.00;99438.91;5066592;28;20188;-83
2022/05/19 05:39:30;;;;;;;5.13;3.90;;;;;;;19.24;100.00;99443.94;5066644;28;20231;-83
2022/05/19 05:42:04;;;;;;;6.10;4.00;;;;;;;19.25;100.00;99448.31;5070121;28;20197;-83
2022/05/19 05:44:34;;;;;;;6.07;3.87;;;;;;;19.33;100.00;99459.16;5069349;28;20200;-83
2022/05/19 05:47:05;;;;;;;5.27;3.80;;;;;;;19.30;100.00;99459.47;5066107;28;20200;-81
2022/05/19 05:49:35;;;;;;;5.03;4.10;;;;;;;19.37;100.00;99465.09;5060042;28;20197;-83
2022/05/19 05:52:04;;;;;;;7.50;5.80;;;;;;;19.53;100.00;99459.94;5066134;28;20223;-83
2022/05/19 05:54:33;;;;;;;5.27;4.50;;;;;;;19.64;100.00;99464.31;5067978;28;20303;-83
2022/05/19 05:57:01;;;;;;;3.80;3.50;;;;;;;19.78;100.00;99461.13;5065987;28;20212;-83
2022/05/19 05:59:29;;;;;;;5.17;3.70;;;;;;;19.75;100.00;99458.75;5066475;28;20279;-83
2022/05/19 06:01:58;;;;;;;4.23;3.10;;;;;;;19.81;100.00;99454.63;5068339;28;20207;-83
2022/05/19 06:04:28;;;;;;;4.57;2.90;;;;;;;19.91;100.00;99450.03;5069928;28;20284;-81
2022/05/19 06:06:56;;;;;;;5.20;2.80;;;;;;;20.22;100.00;99451.38;5069946;28;20208;-83
2022/05/19 06:09:25;;;;;;;7.37;2.60;;;;;;;20.39;100.00;99451.56;5068134;28;20210;-83
2022/05/19 06:11:53;;;;;;;3.97;2.90;;;;;;;20.27;100.00;99443.72;5068155;28;20224;-82
2022/05/19 06:14:22;;;;;;;3.73;2.67;;;;;;;20.35;100.00;99442.06;5073404;28;20196;-83
2022/05/19 06:16:50;;;;;;;4.67;2.70;;;;;;;20.38;100.00;99437.25;5071631;28;20283;-82
2022/05/19 06:19:18;;;;;;;4.13;2.77;;;;;;;20.40;100.00;99445.16;5069343;28;20200;-83
2022/05/19 06:21:48;;;;;;;5.63;2.90;;;;;;;20.44;100.00;99439.34;5076322;28;20193;-82
2022/05/19 06:24:19;;;;;;;3.90;2.73;;;;;;;20.56;100.00;99445.34;5072599;28;20323;-82
2022/05/19 06:26:48;;;;;;;6.28;2.67;;;;;;;20.49;100.00;99449.66;5072310;28;20709;-83
2022/05/19 06:29:16;;;;;;;4.27;2.60;;;;;;;20.75;100.00;99452.38;5069832;28;20204;-82
2022/05/19 06:31:44;;;;;;;3.43;2.87;;;;;;;20.65;100.00;99449.78;5071466;28;20708;-83
2022/05/19 06:34:13;;;;;;;3.03;2.40;;;;;;;20.59;100.00;99442.34;5073042;28;20193;-83
2022/05/19 06:36:48;;;;;;;8.97;2.53;;;;;;;20.66;100.00;99453.34;5071384;28;20226;-83
2022/05/19 06:39:17;;;;;;;3.33;2.30;;;;;;;20.75;100.00;99450.56;5067297;28;20192;-83
2022/05/19 06:42:04;;;;;;;3.93;2.70;;;;;;;20.58;100.00;99448.72;5071458;28;20203;-83
2022/05/19 06:44:34;;;;;;;3.67;2.70;;;;;;;20.82;100.00;99456.16;5068135;28;20216;-83
2022/05/19 06:47:06;;;;;;;3.53;2.60;;;;;;;20.62;100.00;99452.78;5070754;28;20199;-83
2022/05/19 06:49:34;;;;;;;4.17;2.60;;;;;;;20.89;100.00;99456.38;5075802;28;20197;-82
2022/05/19 06:52:04;;;;;;;3.23;2.50;;;;;;;21.12;100.00;99458.38;5069950;28;20216;-83
2022/05/19 06:54:33;;;;;;;4.57;2.63;;;;;;;21.21;100.00;99458.44;5066087;28;20207;-83
2022/05/19 06:57:02;;;;;;;6.20;2.50;;;;;;;21.30;100.00;99452.97;5070755;28;20192;-83
2022/05/19 06:59:31;;;;;;;3.33;2.20;;;;;;;21.39;100.00;99459.25;5072810;28;20666;-82
2022/05/19 07:02:00;;;;;;;2.77;2.50;;;;;;;21.38;100.00;99452.19;5070161;28;20218;-83
2022/05/19 07:04:28;;;;;;;6.63;2.60;;;;;;;21.25;100.00;99449.91;5069899;28;20195;-82
2022/05/19 07:06:56;;;;;;;4.50;2.30;;;;;;;21.18;100.00;99453.38;5072569;28;20219;-83
2022/05/19 07:09:29;;;;;;;4.37;2.40;;;;;;;21.21;100.00;99450.38;5071846;28;20224;-83
2022/05/19 07:11:59;;;;;;;2.87;2.17;;;;;;;21.33;100.00;99451.84;5069745;28;20216;-83
2022/05/19 07:14:27;;;;;;;2.70;2.20;;;;;;;21.30;100.00;99449.44;5070625;28;20208;-82
2022/05/19 07:16:56;;;;;;;4.33;2.47;;;;;;;21.50;100.00;99444.66;5070478;28;20207;-83
2022/05/19 07:22:16;;;;;;;2.47;2.10;;;;;;;21.76;100.00;99448.16;5072394;28;20250;-83
2022/05/19 07:24:52;;;;;;;3.40;2.17;;;;;;;21.73;100.00;99447.66;5066086;28;20202;-83
2022/05/19 07:27:20;;;;;;;3.17;2.20;;;;;;;21.90;100.00;99443.97;5071818;28;20686;-83
2022/05/19 07:29:51;;;;;;;3.30;2.00;;;;;;;21.82;100.00;99444.81;5072013;28;20196;-83
2022/05/19 07:32:21;;;;;;;3.03;2.40;;;;;;;21.82;100.00;99439.44;5071906;28;20216;-82
2022/05/19 07:34:52;;;;;;;3.40;2.33;;;;;;;22.06;100.00;99435.09;5023982;28;20200;-82
2022/05/19 07:37:20;;;;;;;3.70;2.20;;;;;;;22.15;98.55;99437.69;5071987;28;20224;-83
2022/05/19 07:39:48;;;;;;;3.83;2.23;;;;;;;22.23;98.19;99435.00;5066968;28;20203;-82
2022/05/19 07:42:18;;;;;;;2.95;2.38;;;;;;;22.20;94.80;99426.41;5074676;28;20215;-83
2022/05/19 07:44:47;;;;;;;6.00;2.33;;;;;;;22.20;89.99;99426.41;5067019;28;20371;-82
2022/05/19 07:47:15;;;;;;;4.17;2.53;;;;;;;22.29;93.41;99420.00;5067625;28;20200;-83
2022/05/19 07:49:44;;;;;;;2.90;2.30;;;;;;;22.58;95.08;99424.91;5074335;28;20199;-83
2022/05/19 07:52:13;;;;;;;3.75;2.17;;;;;;;22.53;92.40;99416.47;5066952;28;20216;-82
2022/05/19 07:54:42;;;;;;;3.80;1.95;;;;;;;22.72;93.53;99410.75;5071223;28;20188;-82
2022/05/19 07:57:10;;;;;;;4.93;2.25;;;;;;;22.87;94.24;99412.78;5074497;28;20204;-82
2022/05/19 07:59:39;;;;;;;5.13;2.63;;;;;;;22.69;89.72;99404.84;5074904;28;20185;-83
2022/05/19 08:02:08;;;;;;;2.67;2.28;;;;;;;22.64;89.79;99399.94;5070391;28;20203;-83
2022/05/19 08:04:37;;;;;;;5.30;2.40;;;;;;;22.50;90.84;99406.88;5071644;28;20199;-83
2022/05/19 08:07:05;;;;;;;4.85;2.20;;;;;;;22.68;90.40;99390.50;5071407;28;20248;-83
2022/05/19 08:17:56;;;;;;;2.03;1.80;;;;;;;22.51;91.80;99376.16;5073711;28;20196;-83
2022/05/19 08:20:24;;;;;;;2.50;2.03;;;;;;;22.56;93.70;99373.78;5068322;28;20875;-83
2022/05/19 08:22:53;;;;;;;5.63;2.30;;;;;;;22.64;90.28;99372.09;5067707;28;20192;-83
2022/05/19 08:25:24;;;;;;;3.70;2.53;;;;;;;22.75;92.34;99377.97;5063428;28;20205;-84
2022/05/19 08:27:52;;;;;;;5.07;2.53;;;;;;;23.18;93.83;99389.44;5065221;28;20240;-84
2022/05/19 08:30:27;;;;;;;2.53;2.08;;;;;;;23.44;91.02;99391.84;5068323;28;20192;-83
2022/05/19 08:32:56;;;;;;;3.95;2.40;;;;;;;23.53;86.25;99390.81;5068622;28;20261;-83
2022/05/19 08:35:24;;;;;;;3.35;2.05;;;;;;;23.53;88.64;99388.09;5068652;28;20675;-83
2022/05/19 08:37:53;;;;;;;3.67;2.17;;;;;;;23.97;86.22;99384.88;5065774;28;20196;-84
2022/05/19 08:40:21;;;;;;;4.90;2.38;;;;;;;23.96;87.95;99380.50;5069005;28;20191;-83
2022/05/19 08:42:56;;;;;;;5.40;2.40;;;;;;;24.13;85.23;99382.06;5067881;28;20196;-84
2022/05/19 08:45:30;;;;;;;3.25;2.17;;;;;;;24.19;84.92;99380.50;5073694;28;20200;-83
2022/05/19 08:48:05;;;;;;;4.68;2.40;;;;;;;24.10;85.60;99379.72;5068612;28;20196;-83
2022/05/19 08:50:43;;;;;;;3.30;2.25;;;;;;;24.37;85.36;99381.06;5073365;28;20275;-83
2022/05/19 08:53:15;;;;;;;6.18;2.20;;;;;;;24.01;86.43;99380.78;5072001;28;20220;-83
2022/05/19 08:55:49;;;;;;;4.82;2.20;;;;;;;24.25;85.88;99390.63;5023761;28;20224;-83
2022/05/19 08:58:37;;;;;;;2.83;2.13;;;;;;;24.48;83.59;99393.34;5073619;28;20254;-83
2022/05/19 09:01:17;;;;;;;2.88;2.30;;;;;;;24.66;82.20;99393.03;5063118;28;20219;-84
2022/05/19 09:03:55;;;;;;;4.22;2.17;;;;;;;24.41;80.73;99384.25;5069153;28;20249;-84
2022/05/19 09:07:56;;;;;;;2.97;2.13;;;;;;;24.58;81.23;99388.50;5070516;28;20233;-84
2022/05/19 09:09:47;;;;;;;3.05;2.28;;;;;;;24.41;84.12;99370.72;5071966;28;20196;-83
2022/05/19 09:12:20;;;;;;;5.35;2.13;;;;;;;24.62;82.06;99381.72;5073323;28;20762;-83
2022/05/19 09:14:49;;;;;;;5.13;2.70;;;;;;;24.61;83.37;99381.88;5064091;28;20207;-83
2022/05/19 09:17:25;;;;;;;2.50;2.03;;;;;;;24.73;83.33;99381.28;5073470;28;20196;-84
2022/05/19 09:19:58;;;;;;;5.97;2.55;;;;;;;25.05;80.54;99392.84;5069090;28;20227;-83
2022/05/19 09:22:33;;;;;;;5.05;2.88;;;;;;;25.23;79.25;99389.78;5066871;28;20207;-84
2022/05/19 09:25:04;;;;;;;4.50;2.08;;;;;;;25.38;80.84;99379.75;5066938;28;20234;-83
2022/05/19 09:27:36;;;;;;;4.53;2.30;;;;;;;25.38;76.42;99383.34;5063908;28;20232;-83
2022/05/19 09:30:06;;;;;;;4.28;1.90;;;;;;;25.31;70.97;99390.53;5072939;28;20200;-83
2022/05/19 09:32:44;;;;;;;5.50;2.05;;;;;;;25.35;70.16;99380.13;5068520;28;20224;-83
2022/05/19 09:35:18;;;;;;;2.80;2.00;;;;;;;25.15;70.76;99379.84;5072964;28;20199;-83
2022/05/19 09:37:48;;;;;;;2.67;1.90;;;;;;;25.31;69.45;99378.84;5072694;28;20192;-83
2022/05/19 09:40:22;;;;;;;3.80;2.15;;;;;;;25.50;68.06;99383.69;5068335;28;20228;-84
2022/05/19 09:43:19;;;;;;;2.70;2.05;;;;;;;25.78;68.52;99378.44;5076755;28;20196;-83
2022/05/19 09:45:50;;;;;;;4.50;2.17;;;;;;;25.90;71.74;99374.19;5070040;28;20200;-84
2022/05/19 09:48:27;;;;;;;2.08;1.88;;;;;;;26.21;69.59;99382.03;5039013;28;20189;-83
2022/05/19 09:51:02;;;;;;;3.55;1.92;;;;;;;25.87;71.08;99385.44;5073082;28;20269;-83
2022/05/19 09:53:39;;;;;;;5.13;2.47;;;;;;;25.83;69.69;99388.72;5069067;28;20218;-83
2022/05/19 09:56:11;;;;;;;3.53;2.22;;;;;;;25.76;70.32;99382.34;5073762;28;20275;-82
2022/05/19 09:58:44;;;;;;;2.70;1.90;;;;;;;25.88;68.54;99386.28;5076593;28;20275;-84
2022/05/19 10:01:20;;;;;;;2.05;1.85;;;;;;;25.96;65.68;99383.44;5074172;28;20203;-83
2022/05/19 10:03:56;;;;;;;4.45;2.35;;;;;;;25.63;67.22;99399.28;5071555;28;20279;-82
2022/05/19 10:06:36;;;;;;;3.85;1.98;;;;;;;25.58;70.29;99380.88;5073408;28;20196;-82
2022/05/19 10:09:10;;;;;;;3.22;2.25;;;;;;;26.32;69.47;99369.81;5066614;28;20192;-83
2022/05/19 10:11:49;;;;;;;3.95;2.10;;;;;;;26.42;66.27;99366.81;5021313;28;20651;-83
2022/05/19 10:14:20;;;;;;;3.10;1.90;;;;;;;26.76;65.51;99363.34;5068993;28;20212;-84
2022/05/19 10:17:03;;;;;;;6.28;2.40;;;;;;;26.42;65.07;99364.94;5073414;28;20200;-84
2022/05/19 10:20:00;;;;;;;5.80;1.92;;;;;;;26.56;66.42;99363.19;5071275;28;20200;-84
2022/05/19 10:22:48;;;;;;;3.47;2.08;;;;;;;26.29;67.56;99355.78;5076481;28;20200;-84
2022/05/19 10:25:35;;;;;;;2.47;1.83;;;;;;;26.08;69.11;99365.63;5064600;28;20360;-82
2022/05/19 10:31:17;;;;;;;5.72;2.10;;;;;;;26.00;72.18;99356.75;5071596;28;20250;-82
2022/05/19 10:34:07;;;;;;;3.45;1.77;;;;;;;26.05;68.07;99348.84;5072967;28;20239;-83
2022/05/19 10:36:44;;;;;;;5.05;1.90;;;;;;;26.01;67.91;99348.41;5021667;28;20211;-82
2022/05/19 10:39:41;;;;;;;3.08;1.90;;;;;;;26.09;68.59;99348.28;5069668;28;20216;-83
2022/05/19 10:42:21;;;;;;;4.88;2.15;;;;;;;26.17;65.70;99341.91;5076334;28;20196;-83
2022/05/19 10:45:17;;;;;;;3.20;1.80;;;;;;;26.60;66.64;99336.44;5073302;28;20242;-83
2022/05/19 10:48:17;;;;;;;2.83;1.80;;;;;;;26.36;69.13;99327.66;5071828;28;20188;-83
2022/05/19 10:50:54;;;;;;;5.57;2.10;;;;;;;26.42;69.20;99328.78;5075452;28;20272;-83
2022/05/19 10:54:01;;;;;;;3.22;2.15;;;;;;;26.99;69.75;99320.41;5072648;28;20441;-83
2022/05/19 10:56:58;;;;;;;3.20;2.13;;;;;;;27.36;67.46;99321.06;5056787;28;20196;-83
2022/05/19 10:59:42;;;;;;;4.60;1.98;;;;;;;27.51;65.13;99319.06;5063499;28;20215;-83
2022/05/19 11:02:29;;;;;;;5.30;2.08;;;;;;;27.26;64.74;99312.44;5075479;28;20185;-84
2022/05/19 11:05:13;;;;;;;3.08;2.17;;;;;;;27.05;65.10;99316.94;5068756;28;20208;-83
2022/05/19 11:07:53;;;;;;;3.70;2.08;;;;;;;26.97;68.81;99314.34;5070933;28;20340;-83
2022/05/19 11:10:38;;;;;;;3.65;1.92;;;;;;;26.90;69.96;99305.28;5064322;28;20184;-83
2022/05/19 11:13:30;;;;;;;3.78;1.98;;;;;;;26.84;69.91;99299.84;5071146;28;20219;-83
2022/05/19 11:16:10;;;;;;;2.20;1.80;;;;;;;27.03;69.13;99294.56;5072279;28;20718;-83
2022/05/19 11:18:49;;;;;;;2.80;1.90;;;;;;;26.89;67.55;99289.19;5073274;28;20247;-83
2022/05/19 11:21:24;;;;;;;3.45;2.45;;;;;;;27.21;66.07;99280.38;5075181;28;20234;-83
2022/05/19 11:23:57;;;;;;;2.22;1.90;;;;;;;27.39;67.72;99279.84;5069617;28;20207;-83
2022/05/19 11:26:31;;;;;;;4.50;2.10;;;;;;;27.22;68.10;99273.94;5072284;28;20184;-83
2022/05/19 11:29:13;;;;;;;4.38;2.10;;;;;;;27.25;67.95;99278.97;5067546;28;20196;-83
2022/05/19 11:31:47;;;;;;;2.92;1.80;;;;;;;27.19;69.21;99276.19;5072052;28;20216;-82
2022/05/19 11:34:22;;;;;;;3.08;2.10;;;;;;;26.92;67.80;99267.88;5023388;28;20242;-82
2022/05/19 11:36:57;;;;;;;1.83;1.70;;;;;;;27.09;67.51;99263.81;5074932;28;20707;-83
2022/05/19 11:39:33;;;;;;;3.03;2.20;;;;;;;27.22;68.13;99259.50;5074149;28;20252;-83
2022/05/19 11:42:26;;;;;;;3.55;2.08;;;;;;;27.59;66.17;99255.41;5071587;28;20192;-83
2022/05/19 11:44:55;;;;;;;4.88;2.20;;;;;;;27.85;67.15;99262.84;5070727;28;20276;-83
2022/05/19 11:55:57;;;;;;;4.80;1.80;;;;;;;28.45;57.73;99248.19;5074082;28;20275;-83
2022/05/19 11:58:30;;;;;;;9.73;2.20;;;;;;;28.11;60.25;99262.88;5071463;28;20212;-83
2022/05/19 12:01:01;;;;;;;3.00;2.13;;;;;;;28.46;60.30;99252.59;5068731;28;20196;-84
2022/05/19 12:03:36;;;;;;;2.83;2.17;;;;;;;28.63;60.51;99244.00;5070330;28;20192;-84
2022/05/19 12:06:17;;;;;;;4.43;2.08;;;;;;;28.38;61.33;99252.84;5071535;28;20200;-82
2022/05/19 12:09:00;;;;;;;3.35;1.92;;;;;;;28.30;60.45;99255.78;5062904;28;20219;-83
2022/05/19 12:11:30;;;;;;;4.10;2.25;;;;;;;28.33;60.93;99254.50;5065960;28;20204;-84
2022/05/19 12:14:20;;;;;;;3.90;2.20;;;;;;;28.39;60.40;99245.50;5063753;28;20285;-86
2022/05/19 12:16:55;;;;;;;4.50;1.95;;;;;;;28.28;60.32;99246.09;5024485;28;20196;-85
2022/05/19 12:19:35;;;;;;;2.72;1.75;;;;;;;28.54;63.82;99248.81;5069443;28;20195;-85